createdAt,value
2018-05-06T00:00:39.887Z,54.90
2018-05-06T00:03:08.653Z,55.50
2018-05-06T00:05:37.281Z,54.10
2018-05-06T00:08:06.044Z,53.90
2018-05-06T00:10:35.695Z,54.30
2018-05-06T00:13:04.663Z,54.40
2018-05-06T00:15:34.032Z,54.20
2018-05-06T00:18:02.651Z,54.20
2018-05-06T00:20:31.792Z,54.00
2018-05-06T00:23:05.553Z,54.00
2018-05-06T00:25:35.040Z,53.30
2018-05-06T00:28:04.016Z,53.50
2018-05-06T00:30:32.895Z,53.50
2018-05-06T00:33:01.490Z,54.20
2018-05-06T00:35:30.404Z,52.40
2018-05-06T00:37:59.391Z,53.10
2018-05-06T00:40:27.958Z,53.10
2018-05-06T00:42:56.156Z,52.80
2018-05-06T00:45:25.275Z,51.80
2018-05-06T00:47:54.829Z,52.20
2018-05-06T00:50:23.764Z,51.30
2018-05-06T00:52:53.248Z,51.50
2018-05-06T00:55:22.520Z,51.50
2018-05-06T00:57:51.618Z,50.60
2018-05-06T01:00:21.076Z,51.40
2018-05-06T01:02:49.463Z,50.50
2018-05-06T01:05:18.401Z,50.20
2018-05-06T01:07:47.536Z,50.00
2018-05-06T01:10:16.317Z,50.00
2018-05-06T01:12:45.085Z,50.40
2018-05-06T01:15:13.252Z,50.60
2018-05-06T01:17:41.756Z,49.70
2018-05-06T01:20:10.021Z,51.30
2018-05-06T01:22:38.750Z,50.30
2018-05-06T01:25:08.251Z,50.30
2018-05-06T01:27:37.804Z,50.10
2018-05-06T01:30:06.036Z,50.10
2018-05-06T01:32:35.800Z,50.30
2018-05-06T01:35:04.629Z,50.30
2018-05-06T01:37:33.592Z,50.90
2018-05-06T01:40:02.524Z,50.90
2018-05-06T01:42:32.092Z,51.00
2018-05-06T01:45:08.668Z,50.90
2018-05-06T01:47:37.682Z,50.60
2018-05-06T01:50:05.877Z,50.70
2018-05-06T01:52:36.936Z,51.50
2018-05-06T01:55:05.131Z,51.50
2018-05-06T01:57:33.864Z,51.70
2018-05-06T02:00:02.061Z,51.10
2018-05-06T02:02:30.597Z,51.40
2018-05-06T02:04:59.179Z,51.30
2018-05-06T02:07:27.622Z,50.90
2018-05-06T02:09:59.743Z,51.00
2018-05-06T02:12:29.059Z,50.90
2018-05-06T02:14:58.031Z,51.40
2018-05-06T02:17:26.236Z,51.40
2018-05-06T02:19:55.573Z,51.50
2018-05-06T02:22:25.143Z,51.20
2018-05-06T02:24:54.687Z,51.50
2018-05-06T02:27:22.898Z,51.50
2018-05-06T02:29:51.100Z,51.20
2018-05-06T02:32:20.600Z,50.90
2018-05-06T02:34:48.884Z,51.10
2018-05-06T02:37:17.851Z,51.20
2018-05-06T02:39:46.436Z,51.20
2018-05-06T02:42:14.637Z,51.40
2018-05-06T02:44:43.605Z,51.00
2018-05-06T02:47:11.952Z,51.00
2018-05-06T02:49:40.149Z,51.30
2018-05-06T02:52:08.664Z,51.00
2018-05-06T02:54:36.864Z,52.40
2018-05-06T02:57:05.823Z,51.30
2018-05-06T02:59:34.032Z,51.30
2018-05-06T03:02:02.360Z,51.10
2018-05-06T03:04:30.840Z,50.80
2018-05-06T03:06:59.050Z,51.00
2018-05-06T03:09:27.423Z,51.30
2018-05-06T03:11:56.912Z,51.90
2018-05-06T03:14:25.200Z,51.70
2018-05-06T03:16:53.395Z,50.60
2018-05-06T03:19:22.167Z,51.10
2018-05-06T03:21:51.081Z,50.60
2018-05-06T03:24:20.365Z,51.80
2018-05-06T03:26:49.339Z,52.50
2018-05-06T03:29:17.540Z,51.80
2018-05-06T03:31:48.480Z,51.30
2018-05-06T03:34:18.660Z,52.10
2018-05-06T03:36:46.858Z,52.10
2018-05-06T03:39:16.085Z,51.50
2018-05-06T03:41:45.059Z,51.60
2018-05-06T03:44:13.252Z,51.50
2018-05-06T03:46:42.544Z,52.20
2018-05-06T03:49:11.515Z,52.10
2018-05-06T03:51:39.711Z,52.10
2018-05-06T03:54:08.765Z,51.60
2018-05-06T04:10:05.640Z,52.60
2018-05-06T04:12:34.111Z,53.10
2018-05-06T04:15:02.713Z,51.70
2018-05-06T04:17:30.903Z,52.30
2018-05-06T04:19:59.871Z,52.20
2018-05-06T04:22:28.580Z,52.20
2018-05-06T04:24:57.569Z,53.40
2018-05-06T04:27:25.768Z,54.40
2018-05-06T04:29:53.960Z,53.20
2018-05-06T04:32:22.575Z,53.90
2018-05-06T04:34:51.407Z,52.60
2018-05-06T04:37:19.607Z,53.40
2018-05-06T04:39:48.020Z,53.10
2018-05-06T04:42:16.215Z,53.00
2018-05-06T04:44:45.273Z,53.00
2018-05-06T04:47:13.549Z,53.00
2018-05-06T04:49:41.759Z,52.90
2018-05-06T04:52:09.974Z,52.60
2018-05-06T04:54:38.543Z,53.00
2018-05-06T04:57:07.106Z,53.00
2018-05-06T04:59:35.772Z,53.20
2018-05-06T05:02:04.083Z,52.50
2018-05-06T05:04:33.112Z,52.50
2018-05-06T05:07:01.324Z,52.50
2018-05-06T05:09:29.514Z,52.60
2018-05-06T05:11:58.165Z,52.00
2018-05-06T05:14:27.484Z,52.40
2018-05-06T05:16:55.691Z,51.90
2018-05-06T05:19:23.896Z,51.80
2018-05-06T05:21:52.961Z,52.10
2018-05-06T05:24:22.657Z,51.90
2018-05-06T05:26:50.859Z,51.90
2018-05-06T05:29:19.057Z,51.80
2018-05-06T05:31:48.187Z,51.90
2018-05-06T05:34:16.772Z,51.00
2018-05-06T05:36:44.977Z,51.60
2018-05-06T05:39:14.467Z,51.30
2018-05-06T05:41:42.672Z,51.60
2018-05-06T05:44:10.872Z,52.40
2018-05-06T05:46:39.829Z,51.60
2018-05-06T05:49:08.791Z,50.50
2018-05-06T05:51:36.998Z,50.50
2018-05-06T05:54:06.883Z,51.10
2018-05-06T05:56:35.364Z,51.00
2018-05-06T05:59:03.577Z,50.40
2018-05-06T06:01:31.791Z,50.70
2018-05-06T06:04:00.245Z,50.80
2018-05-06T06:06:28.731Z,50.00
2018-05-06T06:08:57.554Z,50.60
2018-05-06T06:11:26.276Z,50.20
2018-05-06T06:13:55.920Z,50.40
2018-05-06T06:16:24.756Z,50.10
2018-05-06T06:18:54.334Z,50.40
2018-05-06T06:21:22.888Z,49.80
2018-05-06T06:23:55.248Z,49.10
2018-05-06T06:26:24.912Z,49.20
2018-05-06T06:28:53.116Z,49.20
2018-05-06T06:31:22.929Z,49.20
2018-05-06T06:33:51.637Z,48.80
2018-05-06T06:36:20.732Z,49.60
2018-05-06T06:38:50.453Z,49.30
2018-05-06T06:41:19.422Z,49.70
2018-05-06T06:43:47.624Z,49.70
2018-05-06T06:46:18.157Z,48.90
2018-05-06T06:48:47.865Z,49.10
2018-05-06T06:51:17.336Z,48.60
2018-05-06T06:53:45.828Z,48.60
2018-05-06T06:56:14.027Z,47.40
2018-05-06T06:58:42.224Z,48.00
2018-05-06T07:01:10.540Z,48.40
2018-05-06T07:03:45.097Z,48.70
2018-05-06T07:06:14.080Z,47.10
2018-05-06T07:08:42.883Z,47.00
2018-05-06T07:11:12.408Z,47.10
2018-05-06T07:13:41.488Z,47.10
2018-05-06T07:16:10.791Z,48.20
2018-05-06T07:18:39.765Z,47.10
2018-05-06T07:21:08.364Z,47.10
2018-05-06T07:23:37.580Z,46.40
2018-05-06T07:26:06.732Z,46.40
2018-05-06T07:28:36.236Z,46.40
2018-05-06T07:31:04.439Z,44.80
2018-05-06T07:33:35.279Z,47.20
2018-05-06T07:36:04.256Z,47.50
2018-05-06T07:38:33.079Z,47.50
2018-05-06T07:41:01.348Z,46.50
2018-05-06T07:43:30.316Z,46.40
2018-05-06T07:45:58.577Z,46.40
2018-05-06T07:48:26.817Z,46.50
2018-05-06T07:50:56.431Z,46.80
2018-05-06T07:53:24.739Z,45.60
2018-05-06T07:55:52.940Z,44.50
2018-05-06T07:58:21.149Z,44.40
2018-05-06T08:00:50.144Z,43.80
2018-05-06T08:03:18.951Z,43.80
2018-05-06T08:05:48.223Z,43.10
2018-05-06T08:08:17.197Z,43.70
2018-05-06T08:10:46.918Z,43.60
2018-05-06T08:13:15.270Z,44.10
2018-05-06T08:15:43.523Z,42.80
2018-05-06T08:18:12.115Z,42.90
2018-05-06T08:20:40.315Z,42.10
2018-05-06T08:23:08.906Z,41.40
2018-05-06T08:25:37.429Z,42.80
2018-05-06T08:28:05.623Z,42.00
2018-05-06T08:30:33.828Z,42.00
2018-05-06T08:33:02.316Z,40.40
2018-05-06T08:35:31.550Z,40.20
2018-05-06T08:37:59.754Z,40.50
2018-05-06T08:40:28.576Z,40.60
2018-05-06T08:42:56.780Z,39.40
2018-05-06T08:45:24.975Z,38.30
2018-05-06T08:48:01.388Z,39.50
2018-05-06T08:50:29.587Z,40.00
2018-05-06T08:52:58.977Z,40.40
2018-05-06T08:55:27.171Z,39.70
2018-05-06T08:57:55.436Z,39.30
2018-05-06T09:00:24.414Z,39.40
2018-05-06T09:02:56.832Z,39.40
2018-05-06T09:05:25.676Z,38.50
2018-05-06T09:07:53.895Z,39.10
2018-05-06T09:10:22.680Z,39.10
2018-05-06T09:12:52.424Z,38.30
2018-05-06T09:15:21.281Z,38.30
2018-05-06T09:17:50.581Z,38.20
2018-05-06T09:20:19.539Z,38.00
2018-05-06T09:22:48.232Z,38.00
2018-05-06T09:25:16.656Z,38.50
2018-05-06T09:27:44.852Z,37.70
2018-05-06T09:30:13.067Z,38.10
2018-05-06T09:32:43.512Z,38.50
2018-05-06T09:35:13.539Z,37.90
2018-05-06T09:37:41.768Z,37.90
2018-05-06T09:40:10.843Z,37.80
2018-05-06T09:42:39.287Z,37.90
2018-05-06T09:45:09.203Z,37.20
2018-05-06T09:47:38.721Z,38.00
2018-05-06T09:50:07.695Z,37.70
2018-05-06T09:52:37.100Z,37.70
2018-05-06T09:55:06.570Z,41.20
2018-05-06T09:57:34.880Z,40.60
2018-05-06T10:00:03.179Z,39.00
2018-05-06T10:02:32.636Z,38.20
2018-05-06T10:05:00.957Z,38.20
2018-05-06T10:07:30.808Z,39.00
2018-05-06T10:10:02.257Z,39.00
2018-05-06T10:12:30.928Z,38.20
2018-05-06T10:14:59.120Z,41.90
2018-05-06T10:17:27.343Z,40.50
2018-05-06T10:19:55.558Z,40.90
2018-05-06T10:22:24.113Z,39.90
2018-05-06T10:24:53.003Z,41.00
2018-05-06T10:27:26.703Z,40.90
2018-05-06T10:29:55.673Z,41.20
2018-05-06T10:32:24.329Z,41.10
2018-05-06T10:34:53.156Z,39.20
2018-05-06T10:37:21.360Z,37.50
2018-05-06T10:39:50.332Z,37.40
2018-05-06T10:42:18.707Z,37.40
2018-05-06T10:44:47.899Z,37.10
2018-05-06T10:47:16.499Z,37.00
2018-05-06T10:49:45.138Z,36.70
2018-05-06T10:52:13.373Z,36.00
2018-05-06T10:54:42.365Z,36.00
2018-05-06T10:57:10.608Z,36.00
2018-05-06T10:59:39.436Z,36.80
2018-05-06T11:02:16.952Z,35.80
2018-05-06T11:04:45.506Z,35.10
2018-05-06T11:07:15.029Z,36.00
2018-05-06T11:09:44.116Z,35.30
2018-05-06T11:12:13.152Z,35.70
2018-05-06T11:14:41.601Z,35.70
2018-05-06T11:17:10.577Z,35.60
2018-05-06T11:19:39.549Z,35.40
2018-05-06T11:22:08.561Z,35.40
2018-05-06T11:24:36.844Z,35.90
2018-05-06T11:27:05.808Z,35.40
2018-05-06T11:29:34.013Z,35.20
2018-05-06T11:32:03.064Z,34.90
2018-05-06T11:34:31.265Z,34.90
2018-05-06T11:36:59.862Z,33.90
2018-05-06T11:39:28.837Z,32.90
2018-05-06T11:41:57.435Z,32.90
2018-05-06T11:44:25.632Z,34.40
2018-05-06T11:46:55.747Z,34.90
2018-05-06T11:49:24.734Z,34.40
2018-05-06T11:51:52.933Z,34.30
2018-05-06T11:54:21.171Z,34.50
2018-05-06T11:56:49.452Z,33.30
2018-05-06T11:59:17.663Z,33.20
2018-05-06T12:01:45.856Z,34.50
2018-05-06T12:04:14.670Z,34.50
2018-05-06T12:06:49.679Z,37.20
2018-05-06T12:09:18.303Z,37.10
2018-05-06T12:11:46.579Z,37.00
2018-05-06T12:14:15.042Z,36.50
2018-05-06T12:16:43.276Z,36.70
2018-05-06T12:19:11.477Z,36.30
2018-05-06T12:21:39.745Z,37.00
2018-05-06T12:24:08.924Z,36.40
2018-05-06T12:26:37.888Z,37.20
2018-05-06T12:29:06.086Z,37.20
2018-05-06T12:31:34.301Z,36.60
2018-05-06T12:34:02.505Z,37.50
2018-05-06T12:36:30.709Z,36.10
2018-05-06T12:39:00.304Z,36.60
2018-05-06T12:41:29.076Z,36.60
2018-05-06T12:43:57.245Z,35.90
2018-05-06T12:46:32.516Z,36.20
2018-05-06T12:49:01.499Z,35.60
2018-05-06T12:51:29.703Z,36.10
2018-05-06T12:53:58.784Z,36.70
2018-05-06T12:56:28.308Z,36.70
2018-05-06T12:58:57.297Z,37.00
2018-05-06T13:01:25.473Z,37.00
2018-05-06T13:03:53.947Z,37.00
2018-05-06T13:06:22.158Z,37.60
2018-05-06T13:08:51.243Z,37.20
2018-05-06T13:11:20.193Z,37.20
2018-05-06T13:13:49.464Z,37.40
2018-05-06T13:16:18.553Z,37.60
2018-05-06T13:18:46.753Z,37.60
2018-05-06T13:21:14.960Z,38.00
2018-05-06T13:23:43.319Z,37.30
2018-05-06T13:26:12.092Z,37.40
2018-05-06T13:28:40.292Z,37.80
2018-05-06T13:31:08.499Z,38.10
2018-05-06T13:33:36.720Z,37.40
2018-05-06T13:36:05.325Z,37.80
2018-05-06T13:38:33.527Z,38.30
2018-05-06T13:41:02.502Z,37.90
2018-05-06T13:43:31.479Z,38.40
2018-05-06T13:45:59.752Z,37.80
2018-05-06T13:48:28.352Z,37.30
2018-05-06T13:51:00.528Z,37.30
2018-05-06T13:53:29.502Z,37.70
2018-05-06T13:55:57.697Z,37.70
2018-05-06T13:58:26.673Z,38.20
2018-05-06T14:00:55.453Z,37.60
2018-05-06T14:03:24.157Z,37.60
2018-05-06T14:05:52.360Z,38.60
2018-05-06T14:08:20.921Z,38.20
2018-05-06T14:10:49.828Z,37.90
2018-05-06T14:13:18.284Z,37.50
2018-05-06T14:15:46.783Z,37.30
2018-05-06T14:18:15.763Z,38.00
2018-05-06T14:20:44.355Z,37.30
2018-05-06T14:23:13.392Z,37.00
2018-05-06T14:25:41.950Z,36.90
2018-05-06T14:28:10.908Z,37.10
2018-05-06T14:30:39.392Z,37.10
2018-05-06T14:33:07.655Z,36.60
2018-05-06T14:35:36.209Z,35.70
2018-05-06T14:38:04.420Z,36.00
2018-05-06T14:40:33.065Z,35.90
2018-05-06T14:43:01.283Z,36.50
2018-05-06T14:45:29.475Z,36.00
2018-05-06T14:48:19.995Z,35.60
2018-05-06T14:50:49.276Z,35.50
2018-05-06T14:53:17.471Z,35.50
2018-05-06T14:55:46.444Z,35.50
2018-05-06T14:58:15.026Z,35.50
2018-05-06T15:00:48.171Z,35.30
2018-05-06T15:03:17.049Z,35.90
2018-05-06T15:05:45.257Z,34.10
2018-05-06T15:08:15.000Z,34.10
2018-05-06T15:10:43.636Z,34.50
2018-05-06T15:13:12.136Z,33.70
2018-05-06T15:15:40.847Z,33.90
2018-05-06T15:18:09.746Z,33.40
2018-05-06T15:20:38.333Z,33.40
2018-05-06T15:23:06.591Z,34.10
2018-05-06T15:25:34.856Z,33.80
2018-05-06T15:28:03.051Z,34.40
2018-05-06T15:30:31.248Z,35.20
2018-05-06T15:33:00.756Z,34.60
2018-05-06T15:35:29.720Z,35.00
2018-05-06T15:37:58.026Z,34.70
2018-05-06T15:40:32.568Z,34.90
2018-05-06T15:43:03.706Z,35.80
2018-05-06T15:45:31.872Z,35.70
2018-05-06T15:48:02.179Z,35.90
2018-05-06T15:50:30.475Z,35.80
2018-05-06T15:52:58.742Z,36.30
2018-05-06T15:55:27.141Z,36.60
2018-05-06T15:57:55.332Z,35.50
2018-05-06T16:00:23.577Z,35.30
2018-05-06T16:03:04.865Z,35.20
2018-05-06T16:05:33.838Z,35.20
2018-05-06T16:08:02.640Z,35.20
2018-05-06T16:10:31.116Z,36.00
2018-05-06T16:12:59.592Z,35.90
2018-05-06T16:15:28.309Z,35.80
2018-05-06T16:17:57.283Z,36.20
2018-05-06T16:20:27.931Z,36.10
2018-05-06T16:23:00.824Z,37.50
2018-05-06T16:25:29.642Z,37.20
2018-05-06T16:27:57.896Z,37.60
2018-05-06T16:30:26.340Z,37.70
2018-05-06T16:32:54.552Z,37.90
2018-05-06T16:35:22.757Z,38.20
2018-05-06T16:37:51.075Z,38.80
2018-05-06T16:40:20.692Z,38.50
2018-05-06T16:42:49.376Z,38.50
2018-05-06T16:45:18.356Z,38.10
2018-05-06T16:47:46.892Z,38.10
2018-05-06T16:50:15.096Z,38.10
2018-05-06T16:52:43.309Z,38.30
2018-05-06T16:55:11.512Z,38.70
2018-05-06T16:57:40.249Z,38.50
2018-05-06T17:00:08.433Z,38.80
2018-05-06T17:02:36.984Z,39.00
2018-05-06T17:05:05.198Z,38.60
2018-05-06T17:07:33.592Z,39.10
2018-05-06T17:10:04.116Z,39.30
2018-05-06T17:12:32.924Z,39.40
2018-05-06T17:15:01.121Z,39.30
2018-05-06T17:17:29.376Z,40.00
2018-05-06T17:19:57.580Z,39.70
2018-05-06T17:22:26.416Z,39.60
2018-05-06T17:24:55.630Z,40.00
2018-05-06T17:27:24.904Z,40.20
2018-05-06T17:29:53.973Z,40.80
2018-05-06T17:32:22.176Z,40.80
2018-05-06T17:34:50.572Z,40.70
2018-05-06T17:37:19.548Z,41.00
2018-05-06T17:39:47.752Z,41.00
2018-05-06T17:42:17.046Z,41.00
2018-05-06T17:44:46.325Z,41.30
2018-05-06T17:47:14.927Z,41.20
2018-05-06T17:49:43.234Z,41.40
2018-05-06T17:52:11.581Z,41.50
2018-05-06T17:54:39.796Z,41.80
2018-05-06T17:57:08.574Z,42.10
2018-05-06T17:59:36.782Z,42.30
2018-05-06T18:02:05.209Z,42.10
2018-05-06T18:04:34.528Z,42.60
2018-05-06T18:07:03.578Z,42.50
2018-05-06T18:09:32.127Z,42.50
2018-05-06T18:12:00.409Z,42.70
2018-05-06T18:14:28.680Z,42.70
2018-05-06T18:16:56.968Z,42.60
2018-05-06T18:19:25.273Z,43.00
2018-05-06T18:21:55.023Z,43.20
2018-05-06T18:24:29.580Z,43.50
2018-05-06T18:26:57.790Z,43.60
2018-05-06T18:29:26.021Z,43.20
2018-05-06T18:31:54.648Z,44.60
2018-05-06T18:34:22.848Z,43.70
2018-05-06T18:36:51.824Z,44.20
2018-05-06T18:39:20.040Z,44.30
2018-05-06T18:41:49.040Z,43.80
2018-05-06T18:44:24.987Z,43.60
2018-05-06T18:46:53.479Z,44.20
2018-05-06T18:49:22.059Z,43.60
2018-05-06T18:51:50.260Z,43.90
2018-05-06T18:54:18.463Z,43.60
2018-05-06T18:56:46.763Z,44.10
2018-05-06T18:59:14.951Z,44.10
2018-05-06T19:01:43.152Z,43.90
2018-05-06T19:04:11.813Z,43.60
2018-05-06T19:06:40.784Z,43.60
2018-05-06T19:09:14.073Z,43.60
2018-05-06T19:11:42.775Z,43.40
2018-05-06T19:14:12.054Z,43.40
2018-05-06T19:16:40.436Z,43.30
2018-05-06T19:19:08.664Z,43.30
2018-05-06T19:21:41.001Z,43.10
2018-05-06T19:24:09.276Z,43.00
2018-05-06T19:26:37.656Z,43.20
2018-05-06T19:29:05.786Z,42.90
2018-05-06T19:31:33.991Z,43.00
2018-05-06T19:34:02.204Z,43.20
2018-05-06T19:36:30.404Z,43.30
2018-05-06T19:39:03.491Z,43.10
2018-05-06T19:41:31.956Z,43.10
2018-05-06T19:44:00.393Z,43.30
2018-05-06T19:46:33.080Z,43.30
2018-05-06T19:49:01.535Z,43.30
2018-05-06T19:51:29.664Z,43.30
2018-05-06T19:53:58.632Z,43.50
2018-05-06T19:56:26.853Z,43.50
2018-05-06T19:58:55.053Z,43.70
2018-05-06T20:01:24.265Z,43.60
2018-05-06T20:03:52.978Z,43.60
2018-05-06T20:06:21.161Z,44.70
2018-05-06T20:08:49.526Z,44.00
2018-05-06T20:11:17.975Z,44.10
2018-05-06T20:13:46.237Z,44.40
2018-05-06T20:16:17.512Z,44.00
2018-05-06T20:18:45.948Z,44.10
2018-05-06T20:21:14.604Z,45.00
2018-05-06T20:23:43.140Z,44.90
2018-05-06T20:26:11.699Z,45.20
2018-05-06T20:28:39.929Z,46.00
2018-05-06T20:31:08.129Z,46.10
2018-05-06T20:33:36.907Z,46.40
2018-05-06T20:36:05.120Z,45.90
2018-05-06T20:38:33.322Z,46.60
2018-05-06T20:41:02.385Z,46.50
2018-05-06T20:43:30.579Z,46.90
2018-05-06T20:45:58.772Z,47.20
2018-05-06T20:48:27.607Z,47.30
2018-05-06T20:50:56.800Z,47.50
2018-05-06T20:53:25.000Z,47.40
2018-05-06T20:55:54.033Z,48.00
2018-05-06T20:58:22.240Z,48.00
2018-05-06T21:00:50.444Z,48.10
2018-05-06T21:03:19.088Z,48.00
2018-05-06T21:05:47.279Z,48.50
2018-05-06T21:08:15.760Z,48.30
2018-05-06T21:10:44.019Z,48.10
2018-05-06T21:13:13.340Z,48.00
2018-05-06T21:15:41.536Z,47.90
2018-05-06T21:18:09.816Z,47.90
2018-05-06T21:20:38.777Z,48.10
2018-05-06T21:23:07.404Z,48.10
2018-05-06T21:25:35.667Z,48.30
2018-05-06T21:28:04.685Z,48.50
2018-05-06T21:30:32.880Z,48.50
2018-05-06T21:33:01.138Z,48.60
2018-05-06T21:35:29.574Z,48.60
2018-05-06T21:37:57.763Z,48.60
2018-05-06T21:40:27.269Z,49.50
2018-05-06T21:45:30.964Z,49.20
2018-05-06T21:47:59.884Z,49.20
2018-05-06T21:50:28.862Z,49.30
2018-05-06T21:52:57.522Z,49.20
2018-05-06T21:55:25.919Z,49.40
2018-05-06T21:57:54.293Z,49.60
2018-05-06T22:00:22.472Z,49.90
2018-05-06T22:02:51.007Z,50.00
2018-05-06T22:05:20.361Z,50.80
2018-05-06T22:07:48.888Z,50.70
2018-05-06T22:10:18.100Z,51.20
2018-05-06T22:12:46.924Z,51.50
2018-05-06T22:15:15.440Z,51.90
2018-05-06T22:17:44.745Z,52.60
2018-05-06T22:20:20.249Z,52.70
2018-05-06T22:22:48.537Z,52.70
2018-05-06T22:25:17.144Z,53.00
2018-05-06T22:27:45.586Z,53.10
2018-05-06T22:30:13.779Z,53.40
2018-05-06T22:32:42.360Z,53.60
2018-05-06T22:35:10.564Z,53.90
2018-05-06T22:37:39.561Z,54.30
2018-05-06T22:40:08.940Z,54.80
2018-05-06T22:42:37.135Z,54.80
2018-05-06T22:45:06.102Z,55.10
2018-05-06T22:47:34.829Z,55.00
2018-05-06T22:50:03.988Z,55.20
2018-05-06T22:52:32.151Z,55.20
2018-05-06T22:55:01.500Z,55.60
2018-05-06T22:57:30.665Z,56.10
2018-05-06T22:59:58.867Z,56.00
2018-05-06T23:02:28.467Z,56.60
2018-05-06T23:04:57.064Z,56.60
2018-05-06T23:07:25.259Z,56.80
2018-05-06T23:09:53.900Z,56.70
2018-05-06T23:12:25.464Z,57.00
2018-05-06T23:14:53.671Z,57.20
2018-05-06T23:17:22.339Z,57.20
2018-05-06T23:19:51.583Z,57.50
2018-05-06T23:22:20.364Z,57.70
2018-05-06T23:24:49.112Z,57.50
2018-05-06T23:27:18.407Z,57.80
2018-05-06T23:29:46.743Z,57.80
2018-05-06T23:32:15.276Z,58.50
2018-05-06T23:34:43.477Z,58.10
2018-05-06T23:37:11.683Z,58.40
2018-05-06T23:39:40.228Z,58.90
2018-05-06T23:42:08.437Z,59.10
2018-05-06T23:44:36.635Z,58.90
2018-05-06T23:47:04.937Z,59.10
2018-05-06T23:49:33.910Z,59.40
2018-05-06T23:52:02.570Z,59.40
2018-05-06T23:54:31.112Z,59.80
2018-05-06T23:56:59.316Z,59.80
2018-05-06T23:59:27.947Z,59.70
